createdAt,value
2018-09-17T00:02:07.594Z,4.07
2018-09-17T00:04:35.971Z,4.03
2018-09-17T00:07:04.351Z,4.20
2018-09-17T00:09:32.756Z,3.73
2018-09-17T00:12:01.348Z,3.67
2018-09-17T00:14:29.839Z,4.17
2018-09-17T00:16:58.242Z,4.27
2018-09-17T00:19:26.650Z,4.00
2018-09-17T00:21:55.248Z,3.93
2018-09-17T00:24:23.754Z,4.20
2018-09-17T00:26:52.144Z,3.77
2018-09-17T00:29:20.518Z,4.00
2018-09-17T00:31:49.155Z,4.33
2018-09-17T00:34:17.635Z,4.10
2018-09-17T00:36:46.023Z,3.90
2018-09-17T00:39:14.427Z,4.30
2018-09-17T00:41:43.041Z,4.13
2018-09-17T00:44:11.507Z,3.83
2018-09-17T00:46:39.915Z,3.80
2018-09-17T00:49:08.312Z,3.73
2018-09-17T00:51:36.911Z,4.10
2018-09-17T00:54:05.405Z,3.77
2018-09-17T00:56:33.809Z,3.40
2018-09-17T00:59:02.183Z,3.53
2018-09-17T01:01:30.816Z,4.00
2018-09-17T01:03:59.498Z,3.60
2018-09-17T01:06:27.979Z,3.73
2018-09-17T01:08:56.595Z,3.90
2018-09-17T01:11:25.091Z,3.43
2018-09-17T01:13:53.459Z,3.77
2018-09-17T01:16:21.882Z,3.63
2018-09-17T01:18:50.496Z,3.80
2018-09-17T01:21:19.209Z,4.20
2018-09-17T01:23:47.696Z,3.77
2018-09-17T01:26:16.091Z,3.77
2018-09-17T01:28:44.470Z,4.17
2018-09-17T01:31:13.107Z,3.70
2018-09-17T01:33:41.591Z,3.60
2018-09-17T01:36:09.963Z,3.70
2018-09-17T01:38:38.366Z,3.60
2018-09-17T01:41:06.977Z,3.40
2018-09-17T01:43:35.452Z,3.80
2018-09-17T01:46:04.101Z,3.90
2018-09-17T01:48:32.496Z,3.60
2018-09-17T01:51:00.875Z,3.77
2018-09-17T01:53:29.496Z,3.53
2018-09-17T01:55:58.187Z,3.97
2018-09-17T01:58:26.879Z,4.47
2018-09-17T02:00:55.383Z,3.90
2018-09-17T02:03:23.762Z,4.27
2018-09-17T02:05:52.143Z,3.87
2018-09-17T02:08:20.756Z,3.90
2018-09-17T02:10:49.447Z,4.10
2018-09-17T02:13:17.975Z,4.00
2018-09-17T02:15:46.391Z,4.20
2018-09-17T02:18:14.789Z,3.83
2018-09-17T02:20:43.404Z,4.07
2018-09-17T02:23:11.887Z,3.77
2018-09-17T02:25:40.259Z,4.23
2018-09-17T02:28:08.680Z,4.37
2018-09-17T02:30:37.084Z,4.43
2018-09-17T02:33:05.245Z,4.40
2018-09-17T02:35:33.632Z,4.00
2018-09-17T02:38:02.255Z,4.90
2018-09-17T02:40:30.944Z,4.07
2018-09-17T02:42:59.419Z,4.30
2018-09-17T02:45:27.820Z,4.47
2018-09-17T02:47:56.408Z,4.63
2018-09-17T02:50:24.898Z,4.80
2018-09-17T02:52:53.518Z,4.10
2018-09-17T02:55:22.206Z,4.30
2018-09-17T02:57:50.683Z,3.70
2018-09-17T03:00:20.772Z,4.27
2018-09-17T03:02:49.750Z,4.57
2018-09-17T03:05:18.343Z,4.17
2018-09-17T03:07:47.057Z,4.27
2018-09-17T03:10:15.615Z,4.57
2018-09-17T03:12:44.035Z,4.07
2018-09-17T03:15:17.941Z,3.97
2018-09-17T03:17:46.331Z,4.43
2018-09-17T03:20:14.919Z,4.03
2018-09-17T03:22:43.423Z,4.43
2018-09-17T03:25:11.811Z,4.17
2018-09-17T03:27:40.184Z,4.67
2018-09-17T03:30:08.673Z,4.33
2018-09-17T03:32:37.060Z,3.97
2018-09-17T03:35:05.439Z,4.10
2018-09-17T03:37:34.088Z,4.50
2018-09-17T03:40:02.466Z,3.50
2018-09-17T03:42:31.071Z,4.00
2018-09-17T03:44:59.556Z,4.10
2018-09-17T03:47:27.939Z,4.17
2018-09-17T03:49:56.331Z,4.30
2018-09-17T03:52:25.072Z,4.77
2018-09-17T03:54:53.561Z,4.73
2018-09-17T03:57:21.935Z,4.40
2018-09-17T03:59:50.335Z,4.83
2018-09-17T04:02:18.936Z,4.43
2018-09-17T04:04:47.624Z,5.07
2018-09-17T04:07:16.337Z,4.07
2018-09-17T04:09:45.233Z,3.83
2018-09-17T04:12:14.653Z,4.53
2018-09-17T04:14:43.051Z,3.93
2018-09-17T04:17:11.517Z,4.40
2018-09-17T04:19:39.894Z,4.10
2018-09-17T04:22:08.975Z,4.17
2018-09-17T04:24:37.351Z,3.90
2018-09-17T04:27:05.823Z,4.03
2018-09-17T04:29:34.240Z,3.97
2018-09-17T04:32:02.638Z,4.40
2018-09-17T04:34:31.010Z,4.30
2018-09-17T04:36:59.411Z,4.23
2018-09-17T04:39:28.478Z,4.27
2018-09-17T04:41:56.865Z,4.20
2018-09-17T04:44:25.250Z,4.03
2018-09-17T04:46:53.635Z,3.83
2018-09-17T04:49:22.011Z,4.20
2018-09-17T04:51:50.392Z,4.87
2018-09-17T04:54:18.771Z,4.83
2018-09-17T04:56:47.146Z,4.30
2018-09-17T04:59:15.547Z,3.93
2018-09-17T05:01:43.918Z,4.20
2018-09-17T05:04:12.300Z,4.40
2018-09-17T05:06:40.686Z,4.33
2018-09-17T05:09:09.605Z,4.10
2018-09-17T05:11:38.004Z,4.10
2018-09-17T05:14:06.731Z,4.40
2018-09-17T05:16:35.563Z,4.07
2018-09-17T05:19:03.981Z,4.07
2018-09-17T05:21:32.402Z,3.90
2018-09-17T05:24:00.787Z,4.47
2018-09-17T05:26:29.167Z,4.20
2018-09-17T05:28:57.619Z,4.93
2018-09-17T05:31:26.084Z,4.07
2018-09-17T05:33:54.715Z,3.93
2018-09-17T05:36:23.440Z,4.30
2018-09-17T05:38:51.943Z,4.42
2018-09-17T05:41:20.428Z,4.30
2018-09-17T05:43:48.831Z,3.97
2018-09-17T05:46:17.446Z,4.17
2018-09-17T05:48:45.922Z,4.10
2018-09-17T05:51:14.567Z,4.77
2018-09-17T05:53:43.140Z,4.00
2018-09-17T05:56:11.520Z,4.50
2018-09-17T05:58:39.923Z,3.90
2018-09-17T06:01:08.540Z,4.00
2018-09-17T06:03:37.248Z,4.43
2018-09-17T06:06:05.831Z,4.27
2018-09-17T06:08:34.235Z,3.93
2018-09-17T06:11:02.769Z,4.17
2018-09-17T06:13:31.356Z,4.23
2018-09-17T06:15:59.983Z,4.50
2018-09-17T06:18:28.589Z,3.93
2018-09-17T06:20:57.348Z,4.40
2018-09-17T06:23:26.020Z,4.37
2018-09-17T06:25:54.245Z,4.63
2018-09-17T06:28:22.715Z,4.67
2018-09-17T06:30:51.344Z,4.83
2018-09-17T06:33:19.918Z,4.50
2018-09-17T06:35:48.631Z,4.40
2018-09-17T06:38:17.097Z,4.93
2018-09-17T06:40:45.795Z,4.00
2018-09-17T06:43:14.511Z,4.33
2018-09-17T06:45:43.195Z,4.43
2018-09-17T06:48:11.663Z,4.13
2018-09-17T06:50:40.088Z,4.37
2018-09-17T06:53:08.710Z,4.60
2018-09-17T06:55:37.388Z,4.53
2018-09-17T06:58:05.887Z,4.63
2018-09-17T07:00:34.290Z,4.77
2018-09-17T07:03:02.903Z,4.90
2018-09-17T07:05:31.619Z,4.33
2018-09-17T07:08:00.148Z,5.03
2018-09-17T07:10:28.562Z,4.10
2018-09-17T07:12:57.410Z,4.07
2018-09-17T07:15:25.908Z,4.60
2018-09-17T07:17:54.553Z,4.10
2018-09-17T07:20:23.465Z,4.33
2018-09-17T07:22:51.938Z,4.30
2018-09-17T07:25:20.600Z,4.30
2018-09-17T07:27:49.482Z,4.20
2018-09-17T07:30:17.906Z,4.30
2018-09-17T07:32:46.735Z,3.90
2018-09-17T07:35:15.784Z,4.30
2018-09-17T07:37:44.269Z,3.97
2018-09-17T07:40:13.564Z,4.83
2018-09-17T07:42:42.364Z,4.00
2018-09-17T07:45:10.751Z,4.73
2018-09-17T07:47:39.344Z,4.40
2018-09-17T07:50:07.840Z,4.07
2018-09-17T07:52:36.291Z,4.20
2018-09-17T07:55:04.927Z,4.20
2018-09-17T07:57:33.636Z,3.77
2018-09-17T08:00:02.148Z,4.00
2018-09-17T08:02:30.634Z,4.57
2018-09-17T08:04:59.503Z,3.87
2018-09-17T08:07:28.204Z,3.70
2018-09-17T08:09:56.891Z,4.13
2018-09-17T08:12:25.604Z,3.80
2018-09-17T08:14:54.079Z,3.80
2018-09-17T08:17:22.701Z,3.53
2018-09-17T08:19:51.456Z,4.00
2018-09-17T08:22:20.059Z,3.92
2018-09-17T08:24:48.674Z,3.80
2018-09-17T08:27:17.687Z,3.52
2018-09-17T08:29:46.401Z,3.98
2018-09-17T08:32:15.109Z,3.60
2018-09-17T08:34:43.829Z,3.62
2018-09-17T08:37:12.310Z,3.33
2018-09-17T08:39:40.942Z,3.70
2018-09-17T08:42:09.643Z,3.17
2018-09-17T08:44:38.335Z,3.70
2018-09-17T08:47:07.063Z,3.25
2018-09-17T08:49:36.071Z,3.27
2018-09-17T08:52:04.851Z,2.67
2018-09-17T08:54:37.803Z,3.25
2018-09-17T08:57:11.876Z,3.12
2018-09-17T08:59:50.821Z,3.40
2018-09-17T09:02:25.103Z,3.58
2018-09-17T09:04:53.816Z,3.27
2018-09-17T09:07:28.227Z,3.83
2018-09-17T09:10:02.374Z,3.25
2018-09-17T09:12:36.491Z,3.47
2018-09-17T09:15:10.736Z,3.42
2018-09-17T09:17:39.556Z,3.70
2018-09-17T09:20:08.350Z,3.45
2018-09-17T09:22:37.401Z,3.42
2018-09-17T09:25:06.110Z,3.35
2018-09-17T09:27:34.839Z,3.80
2018-09-17T09:30:04.049Z,2.90
2018-09-17T09:32:33.507Z,2.87
2018-09-17T09:35:02.199Z,3.10
2018-09-17T09:37:31.060Z,3.17
2018-09-17T09:40:00.035Z,2.90
2018-09-17T09:42:28.955Z,2.77
2018-09-17T09:44:58.521Z,3.22
2018-09-17T09:47:27.226Z,3.40
2018-09-17T09:49:55.999Z,2.95
2018-09-17T09:52:25.008Z,3.17
2018-09-17T09:54:53.704Z,2.72
2018-09-17T09:57:22.460Z,3.20
2018-09-17T09:59:51.201Z,3.17
2018-09-17T10:02:25.373Z,2.50
2018-09-17T10:04:54.111Z,2.60
2018-09-17T10:07:22.803Z,2.62
2018-09-17T10:09:57.107Z,3.60
2018-09-17T10:12:31.314Z,3.90
2018-09-17T10:15:05.367Z,2.60
2018-09-17T10:17:39.335Z,2.62
2018-09-17T10:20:08.555Z,2.62
2018-09-17T10:22:37.335Z,2.95
2018-09-17T10:25:06.070Z,3.02
2018-09-17T10:27:35.126Z,3.10
2018-09-17T10:30:03.861Z,2.80
2018-09-17T10:32:32.587Z,3.52
2018-09-17T10:35:01.531Z,3.08
2018-09-17T10:37:30.227Z,2.98
2018-09-17T10:39:58.930Z,23.00
2018-09-17T10:42:27.751Z,3.42
2018-09-17T10:44:56.230Z,2.83
2018-09-17T10:47:24.827Z,2.95
2018-09-17T10:49:53.328Z,2.92
2018-09-17T10:52:22.645Z,3.58
2018-09-17T10:54:51.333Z,3.77
2018-09-17T10:57:20.089Z,3.12
2018-09-17T10:59:48.751Z,3.85
2018-09-17T11:02:17.252Z,3.05
2018-09-17T11:04:45.873Z,3.22
2018-09-17T11:07:14.555Z,2.90
2018-09-17T11:09:43.261Z,3.05
2018-09-17T11:12:12.300Z,3.02
2018-09-17T11:14:40.794Z,2.95
2018-09-17T11:17:09.440Z,3.00
2018-09-17T11:19:38.336Z,2.58
2018-09-17T11:22:06.828Z,3.08
2018-09-17T11:24:35.437Z,2.60
2018-09-17T11:27:04.424Z,2.47
2018-09-17T11:29:33.120Z,2.65
2018-09-17T11:32:01.613Z,2.30
2018-09-17T11:34:30.509Z,2.55
2018-09-17T11:36:59.485Z,2.27
2018-09-17T11:39:27.952Z,2.27
2018-09-17T11:41:56.952Z,2.20
2018-09-17T11:44:25.696Z,2.42
2018-09-17T11:46:54.181Z,2.52
2018-09-17T11:49:23.132Z,2.17
2018-09-17T11:51:51.899Z,2.30
2018-09-17T11:54:20.616Z,2.30
2018-09-17T11:56:49.503Z,2.00
2018-09-17T11:59:19.318Z,2.58
2018-09-17T12:01:55.330Z,2.17
2018-09-17T12:04:29.372Z,2.47
2018-09-17T12:07:04.030Z,2.45
2018-09-17T12:12:15.912Z,2.00
2018-09-17T12:14:44.619Z,2.10
2018-09-17T12:17:13.324Z,2.00
2018-09-17T12:19:42.040Z,2.30
2018-09-17T12:22:10.785Z,2.30
2018-09-17T12:24:39.480Z,2.20
2018-09-17T12:27:08.222Z,2.00
2018-09-17T12:29:36.941Z,2.30
2018-09-17T12:32:05.678Z,2.25
2018-09-17T12:34:34.653Z,2.12
2018-09-17T12:37:03.343Z,2.10
2018-09-17T12:39:32.829Z,2.20
2018-09-17T12:42:02.550Z,2.20
2018-09-17T12:44:31.329Z,2.10
2018-09-17T12:47:00.027Z,2.02
2018-09-17T12:49:28.543Z,2.00
2018-09-17T12:51:57.164Z,1.90
2018-09-17T12:54:25.674Z,2.05
2018-09-17T12:56:54.643Z,2.17
2018-09-17T12:59:23.340Z,2.30
2018-09-17T13:01:51.925Z,2.02
2018-09-17T13:04:20.582Z,2.58
2018-09-17T13:06:49.271Z,2.17
2018-09-17T13:09:17.955Z,2.45
2018-09-17T13:11:46.570Z,2.10
2018-09-17T13:14:15.179Z,2.15
2018-09-17T13:16:43.876Z,2.33
2018-09-17T13:19:12.947Z,2.25
2018-09-17T13:21:41.651Z,2.60
2018-09-17T13:24:10.348Z,2.05
2018-09-17T13:26:38.894Z,2.02
2018-09-17T13:29:07.536Z,2.10
2018-09-17T13:31:36.265Z,2.00
2018-09-17T13:34:05.880Z,4.08
2018-09-17T13:36:34.592Z,2.22
2018-09-17T13:39:03.548Z,2.08
2018-09-17T13:41:32.736Z,2.30
2018-09-17T13:44:02.103Z,2.40
2018-09-17T13:46:30.841Z,2.27
2018-09-17T13:48:59.763Z,2.50
2018-09-17T13:51:28.343Z,2.15
2018-09-17T13:53:57.054Z,2.20
2018-09-17T13:56:25.771Z,2.30
2018-09-17T13:58:54.480Z,2.02
2018-09-17T14:01:23.179Z,2.30
2018-09-17T14:03:51.941Z,2.30
2018-09-17T14:06:20.401Z,2.30
2018-09-17T14:08:48.988Z,2.30
2018-09-17T14:11:17.737Z,2.15
2018-09-17T14:13:46.500Z,2.30
2018-09-17T14:16:16.049Z,1.98
2018-09-17T14:18:44.484Z,2.58
2018-09-17T14:21:13.202Z,2.35
2018-09-17T14:23:41.936Z,2.27
2018-09-17T14:26:10.716Z,2.40
2018-09-17T14:28:39.156Z,2.20
2018-09-17T14:31:07.844Z,2.22
2018-09-17T14:33:37.224Z,2.10
2018-09-17T14:36:05.882Z,2.27
2018-09-17T14:38:34.354Z,2.52
2018-09-17T14:41:02.994Z,2.12
2018-09-17T14:43:31.772Z,2.02
2018-09-17T14:46:00.477Z,2.42
2018-09-17T14:48:29.211Z,2.15
2018-09-17T14:51:09.334Z,2.33
2018-09-17T14:53:38.204Z,2.77
2018-09-17T14:56:06.920Z,2.42
2018-09-17T14:58:35.636Z,2.33
2018-09-17T15:01:04.480Z,1.75
2018-09-17T15:03:33.115Z,2.47
2018-09-17T15:06:01.792Z,2.75
2018-09-17T15:08:30.543Z,2.00
2018-09-17T15:10:59.212Z,2.33
2018-09-17T15:13:27.931Z,2.20
2018-09-17T15:15:58.910Z,2.60
2018-09-17T15:18:27.961Z,2.50
2018-09-17T15:20:56.765Z,2.42
2018-09-17T15:23:25.480Z,2.58
2018-09-17T15:25:54.171Z,2.02
2018-09-17T15:28:22.974Z,1.92
2018-09-17T15:30:51.672Z,2.25
2018-09-17T15:33:20.311Z,1.98
2018-09-17T15:35:49.011Z,2.27
2018-09-17T15:38:17.742Z,2.00
2018-09-17T15:40:46.265Z,2.20
2018-09-17T15:43:14.590Z,2.40
2018-09-17T15:45:43.231Z,2.02
2018-09-17T15:48:11.613Z,2.20
2018-09-17T15:50:40.007Z,2.20
2018-09-17T15:53:08.419Z,2.40
2018-09-17T15:55:36.795Z,2.30
2018-09-17T15:58:05.412Z,2.30
2018-09-17T16:00:33.915Z,2.10
2018-09-17T16:03:17.299Z,2.40
2018-09-17T16:05:46.012Z,2.00
2018-09-17T16:08:14.475Z,2.45
2018-09-17T16:10:42.854Z,2.47
2018-09-17T16:15:54.434Z,2.10
2018-09-17T16:18:23.139Z,2.47
2018-09-17T16:20:56.616Z,2.33
2018-09-17T16:23:25.016Z,2.17
2018-09-17T16:25:53.612Z,1.95
2018-09-17T16:28:22.298Z,2.05
2018-09-17T16:30:51.000Z,2.22
2018-09-17T16:33:19.685Z,1.98
2018-09-17T16:35:48.158Z,2.02
2018-09-17T16:38:17.366Z,2.25
2018-09-17T16:40:45.994Z,1.90
2018-09-17T16:43:14.652Z,2.20
2018-09-17T16:45:43.593Z,2.73
2018-09-17T16:48:12.275Z,4.10
2018-09-17T16:50:40.996Z,2.98
2018-09-17T16:53:09.842Z,3.20
2018-09-17T16:55:38.246Z,2.17
2018-09-17T16:58:07.099Z,2.30
2018-09-17T17:00:35.805Z,2.00
2018-09-17T17:03:04.505Z,2.08
2018-09-17T17:05:33.188Z,2.30
2018-09-17T17:08:01.900Z,2.37
2018-09-17T17:10:30.596Z,2.10
2018-09-17T17:12:59.295Z,2.17
2018-09-17T17:15:28.002Z,2.43
2018-09-17T17:17:56.688Z,2.40
2018-09-17T17:20:25.381Z,2.17
2018-09-17T17:22:54.092Z,2.40
2018-09-17T17:25:22.800Z,2.13
2018-09-17T17:27:51.532Z,2.23
2018-09-17T17:30:20.792Z,2.33
2018-09-17T17:32:49.483Z,2.30
2018-09-17T17:35:17.964Z,2.40
2018-09-17T17:37:46.570Z,2.40
2018-09-17T17:40:15.289Z,2.47
2018-09-17T17:42:43.738Z,2.20
2018-09-17T17:45:12.399Z,2.87
2018-09-17T17:47:40.772Z,2.33
2018-09-17T17:50:09.159Z,2.87
2018-09-17T17:52:38.903Z,2.47
2018-09-17T17:55:07.584Z,2.43
2018-09-17T17:57:36.334Z,2.77
2018-09-17T18:00:05.612Z,2.10
2018-09-17T18:02:33.990Z,2.10
2018-09-17T18:05:02.387Z,2.70
2018-09-17T18:07:31.247Z,2.40
2018-09-17T18:09:59.950Z,2.10
2018-09-17T18:12:28.435Z,2.50
2018-09-17T18:14:57.341Z,2.90
2018-09-17T18:17:25.939Z,3.10
2018-09-17T18:19:54.337Z,3.07
2018-09-17T18:22:23.062Z,2.73
2018-09-17T18:24:51.483Z,2.90
2018-09-17T18:27:20.599Z,2.70
2018-09-17T18:29:49.211Z,2.50
2018-09-17T18:32:17.641Z,2.60
2018-09-17T18:34:46.274Z,2.63
2018-09-17T18:37:15.336Z,2.27
2018-09-17T18:39:43.932Z,2.40
2018-09-17T18:42:12.501Z,2.57
2018-09-17T18:44:41.266Z,2.47
2018-09-17T18:47:10.080Z,3.30
2018-09-17T18:49:38.793Z,3.00
2018-09-17T18:52:07.222Z,3.20
2018-09-17T18:54:35.839Z,2.97
2018-09-17T18:57:04.407Z,3.50
2018-09-17T18:59:32.731Z,4.07
2018-09-17T19:02:01.126Z,4.33
2018-09-17T19:04:29.754Z,5.10
2018-09-17T19:06:58.262Z,4.40
2018-09-17T19:09:32.188Z,3.27
2018-09-17T19:12:01.187Z,2.93
2018-09-17T19:14:38.314Z,2.60
2018-09-17T19:17:12.651Z,2.80
2018-09-17T19:19:41.046Z,3.63
2018-09-17T19:22:15.025Z,3.83
2018-09-17T19:24:43.474Z,4.33
2018-09-17T19:27:11.979Z,4.50
2018-09-17T19:29:40.414Z,3.97
2018-09-17T19:32:08.803Z,6.87
2018-09-17T19:34:37.185Z,6.67
2018-09-17T19:37:11.297Z,4.43
2018-09-17T19:39:45.423Z,5.60
2018-09-17T19:42:14.967Z,5.67
2018-09-17T19:46:53.022Z,5.90
2018-09-17T19:49:21.505Z,3.93
2018-09-17T19:51:55.467Z,3.83
2018-09-17T19:54:23.960Z,3.30
2018-09-17T19:56:52.284Z,3.30
2018-09-17T19:59:26.236Z,3.40
2018-09-17T20:01:54.620Z,4.00
2018-09-17T20:04:28.560Z,4.70
2018-09-17T20:06:56.944Z,5.80
2018-09-17T20:09:25.323Z,6.80
2018-09-17T20:11:53.719Z,7.43
2018-09-17T20:14:22.099Z,8.47
2018-09-17T20:16:50.492Z,5.47
2018-09-17T20:19:19.111Z,5.20
2018-09-17T20:21:47.822Z,4.47
2018-09-17T20:24:16.286Z,5.87
2018-09-17T20:26:44.679Z,4.47
2018-09-17T20:29:13.315Z,4.90
2018-09-17T20:31:47.063Z,4.20
2018-09-17T20:34:15.744Z,5.27
2018-09-17T20:36:44.218Z,5.80
2018-09-17T20:39:12.866Z,7.17
2018-09-17T20:41:41.266Z,8.50
2018-09-17T20:44:09.643Z,12.27
2018-09-17T20:46:38.050Z,11.10
2018-09-17T20:49:06.462Z,13.37
2018-09-17T20:51:35.172Z,12.73
2018-09-17T20:54:03.831Z,12.67
2018-09-17T20:56:32.227Z,8.60
2018-09-17T20:59:00.643Z,6.93
2018-09-17T21:01:29.402Z,9.37
2018-09-17T21:03:57.690Z,12.17
2018-09-17T21:06:26.086Z,11.40
2018-09-17T21:08:54.774Z,12.90
2018-09-17T21:11:23.399Z,12.07
2018-09-17T21:13:52.131Z,10.33
2018-09-17T21:16:20.886Z,10.87
2018-09-17T21:18:49.549Z,10.07
2018-09-17T21:21:17.980Z,8.90
2018-09-17T21:23:46.390Z,11.53
2018-09-17T21:26:14.783Z,10.60
2018-09-17T21:28:43.383Z,9.93
2018-09-17T21:31:12.135Z,6.30
2018-09-17T21:33:40.655Z,5.00
2018-09-17T21:36:09.006Z,4.27
2018-09-17T21:38:37.410Z,4.17
2018-09-17T21:41:06.011Z,4.30
2018-09-17T21:43:34.713Z,4.63
2018-09-17T21:46:03.428Z,4.50
2018-09-17T21:48:32.125Z,5.00
2018-09-17T21:51:00.608Z,4.87
2018-09-17T21:53:29.020Z,5.90
2018-09-17T21:55:57.390Z,5.87
2018-09-17T21:58:26.016Z,5.53
2018-09-17T22:00:59.460Z,5.30
2018-09-17T22:03:28.370Z,5.43
2018-09-17T22:05:57.062Z,6.27
2018-09-17T22:08:25.467Z,5.43
2018-09-17T22:10:53.871Z,5.07
2018-09-17T22:13:22.343Z,5.07
2018-09-17T22:15:50.765Z,5.00
2018-09-17T22:18:19.174Z,4.87
2018-09-17T22:20:47.763Z,5.20
2018-09-17T22:23:16.259Z,4.43
2018-09-17T22:25:44.883Z,4.73
2018-09-17T22:28:13.262Z,4.70
2018-09-17T22:30:41.656Z,4.37
2018-09-17T22:33:10.255Z,4.77
2018-09-17T22:35:38.726Z,4.30
2018-09-17T22:38:07.145Z,4.07
2018-09-17T22:40:35.544Z,4.30
2018-09-17T22:43:04.161Z,4.23
2018-09-17T22:45:32.644Z,4.00
2018-09-17T22:48:01.030Z,4.20
2018-09-17T22:50:29.427Z,4.07
2018-09-17T22:52:57.836Z,4.57
2018-09-17T22:55:26.219Z,3.93
2018-09-17T22:57:54.610Z,4.27
2018-09-17T23:00:23.039Z,4.13
2018-09-17T23:02:51.643Z,4.37
2018-09-17T23:05:20.115Z,4.07
2018-09-17T23:07:48.507Z,4.63
2018-09-17T23:10:16.886Z,4.73
2018-09-17T23:12:45.262Z,4.70
2018-09-17T23:15:13.662Z,4.33
2018-09-17T23:17:42.076Z,4.63
2018-09-17T23:20:10.463Z,4.57
2018-09-17T23:22:38.847Z,4.43
2018-09-17T23:25:07.240Z,4.37
2018-09-17T23:27:35.850Z,4.77
2018-09-17T23:30:04.482Z,4.97
2018-09-17T23:32:33.088Z,5.03
2018-09-17T23:35:01.800Z,4.00
2018-09-17T23:37:30.300Z,4.70
2018-09-17T23:39:58.671Z,4.60
2018-09-17T23:42:27.052Z,4.53
2018-09-17T23:44:55.451Z,4.33
2018-09-17T23:47:23.835Z,4.17
2018-09-17T23:49:52.243Z,4.43
2018-09-17T23:52:20.767Z,4.10
2018-09-17T23:54:49.150Z,4.60
2018-09-17T23:57:17.573Z,4.50
2018-09-17T23:59:45.978Z,4.17
